Time;durP1;ratioP1;P1;durP2;ratioP2;P2;SDS_P1;SDS_P2;PMS_P1;PMS_P2;Temp;Humidity;BMP_temperature;BMP_pressure;BME280_temperature;BME280_humidity;BME280_pressure;Samples;Min_cycle;Max_cycle;Signal;HPM_P1;HPM_P2
2022/11/23 00:00:37;;;;;;;10.55;4.38;;;10.40;99.90;;;9.51;100.00;99403.19;4251785;27;20035;-74
2022/11/23 00:02:37;;;;;;;15.18;5.28;;;10.40;99.90;;;9.52;100.00;99394.31;4234540;28;20028;-73
2022/11/23 00:04:38;;;;;;;12.00;5.05;;;10.40;99.90;;;9.54;100.00;99397.56;4217949;28;20058;-73
2022/11/23 00:06:40;;;;;;;7.88;3.45;;;10.40;99.90;;;9.55;100.00;99387.84;4218857;28;20024;-74
2022/11/23 00:08:42;;;;;;;12.57;3.90;;;10.40;99.90;;;9.58;100.00;99379.59;4218680;28;20483;-73
2022/11/23 00:10:43;;;;;;;8.05;3.38;;;10.40;99.90;;;9.59;100.00;99373.34;4217630;28;20034;-74
2022/11/23 00:12:44;;;;;;;10.00;3.50;;;10.40;99.90;;;9.61;100.00;99371.34;4218668;28;20024;-74
2022/11/23 00:14:45;;;;;;;11.93;3.78;;;10.40;99.90;;;9.61;100.00;99364.25;4218804;28;20031;-74
2022/11/23 00:16:45;;;;;;;9.40;4.05;;;10.40;99.90;;;9.60;100.00;99370.50;4218606;28;20028;-73
2022/11/23 00:18:47;;;;;;;8.98;3.25;;;10.40;99.90;;;9.59;100.00;99371.50;4218021;28;20021;-73
2022/11/23 00:20:48;;;;;;;11.95;3.30;;;10.40;99.90;;;9.59;100.00;99365.44;4251264;27;20035;-73
2022/11/23 00:22:49;;;;;;;7.22;2.35;;;10.50;99.90;;;9.62;100.00;99352.72;4218831;28;20017;-73
2022/11/23 00:24:50;;;;;;;10.25;2.75;;;10.50;99.90;;;9.61;100.00;99343.19;4218752;28;20039;-73
2022/11/23 00:26:51;;;;;;;8.45;3.25;;;10.50;99.90;;;9.64;100.00;99340.19;4251946;27;20494;-73
2022/11/23 00:28:52;;;;;;;7.97;2.33;;;10.50;99.90;;;9.66;100.00;99338.19;4218635;28;20032;-73
2022/11/23 00:30:53;;;;;;;7.72;2.30;;;10.50;99.90;;;9.65;100.00;99333.09;4218805;28;20487;-73
2022/11/23 00:32:54;;;;;;;9.27;2.53;;;10.50;99.90;;;9.67;100.00;99328.47;4251243;27;20057;-73
2022/11/23 00:34:55;;;;;;;8.90;2.10;;;10.50;99.90;;;9.69;100.00;99322.03;4251487;27;20026;-73
2022/11/23 00:36:56;;;;;;;7.25;2.42;;;10.50;99.90;;;9.70;100.00;99310.50;4218549;28;20483;-73
2022/11/23 00:38:57;;;;;;;7.18;2.25;;;10.50;99.90;;;9.70;100.00;99305.22;4218623;28;20024;-73
2022/11/23 00:41:06;;;;;;;4.65;1.75;;;10.60;99.90;;;9.73;100.00;99301.41;4218667;28;20031;-73
2022/11/23 00:43:07;;;;;;;4.28;2.10;;;10.60;99.90;;;9.66;100.00;99296.06;4250042;27;20395;-73
2022/11/23 00:45:09;;;;;;;8.57;2.50;;;10.60;99.90;;;9.71;100.00;99308.66;4218013;28;20112;-73
2022/11/23 00:47:10;;;;;;;4.13;1.80;;;10.50;99.90;;;9.70;100.00;99310.50;4218646;28;20024;-74
2022/11/23 00:49:10;;;;;;;8.15;2.17;;;10.60;99.90;;;9.72;100.00;99310.31;4218462;28;20034;-73
2022/11/23 00:51:16;;;;;;;4.78;2.28;;;10.50;99.90;;;9.71;100.00;99311.28;4251517;28;20024;-74
2022/11/23 00:53:16;;;;;;;6.07;1.67;;;10.50;99.90;;;9.67;100.00;99302.97;4250889;28;20036;-74
2022/11/23 00:55:17;;;;;;;4.65;2.67;;;10.50;99.90;;;9.70;100.00;99291.25;4218419;28;20518;-74
2022/11/23 00:57:18;;;;;;;6.32;2.28;;;10.60;99.90;;;9.72;100.00;99278.69;4216739;28;20456;-74
2022/11/23 00:59:19;;;;;;;6.00;1.70;;;10.60;99.90;;;9.71;100.00;99272.63;4251532;28;20019;-74
2022/11/23 01:01:24;;;;;;;7.05;1.83;;;10.60;99.90;;;9.70;100.00;99271.00;4218495;28;20031;-74
2022/11/23 01:03:24;;;;;;;4.97;1.90;;;10.50;99.90;;;9.70;100.00;99271.00;4250701;28;20023;-74
2022/11/23 01:05:25;;;;;;;6.25;1.92;;;10.60;99.90;;;9.67;100.00;99265.28;4218381;28;20468;-73
2022/11/23 01:07:29;;;;;;;6.57;1.80;;;10.60;99.90;;;9.68;100.00;99256.38;4218411;28;20024;-73
2022/11/23 01:09:30;;;;;;;5.57;2.05;;;10.60;99.90;;;9.71;100.00;99248.09;4250822;27;20043;-73
2022/11/23 01:11:31;;;;;;;5.45;1.95;;;10.50;99.90;;;9.68;100.00;99235.31;4217101;28;20025;-74
2022/11/23 01:13:33;;;;;;;5.63;2.20;;;10.50;99.90;;;9.74;100.00;99245.91;4217939;28;20036;-74
2022/11/23 01:15:33;;;;;;;5.05;2.25;;;10.50;99.90;;;9.79;100.00;99242.72;4218556;28;20036;-74
2022/11/23 01:17:34;;;;;;;4.65;2.53;;;10.50;99.90;;;9.77;100.00;99242.91;4218168;28;20400;-74
2022/11/23 01:19:35;;;;;;;3.58;1.75;;;10.60;99.90;;;9.74;100.00;99242.47;4250799;28;20053;-74
2022/11/23 01:21:37;;;;;;;5.88;1.98;;;10.60;99.90;;;9.75;100.00;99237.03;4217500;28;20048;-74
2022/11/23 01:23:38;;;;;;;3.03;1.88;;;10.60;99.90;;;9.79;100.00;99233.03;4221608;28;20027;-74
2022/11/23 01:25:39;;;;;;;9.40;2.30;;;10.60;99.90;;;9.77;100.00;99234.19;4254264;27;20027;-73
2022/11/23 01:27:40;;;;;;;6.65;1.88;;;10.60;99.90;;;9.77;100.00;99244.72;4221302;28;20571;-74
2022/11/23 01:29:40;;;;;;;3.78;1.92;;;10.60;99.90;;;9.74;100.00;99232.75;4219983;28;20086;-74
2022/11/23 01:31:41;;;;;;;4.30;1.88;;;10.60;99.90;;;9.73;100.00;99222.41;4221572;28;20088;-74
2022/11/23 01:33:43;;;;;;;3.50;1.83;;;10.60;99.90;;;9.76;100.00;99233.41;4221425;28;20032;-73
2022/11/23 01:35:44;;;;;;;4.55;1.52;;;10.60;99.90;;;9.77;100.00;99226.28;4254026;27;20029;-74
2022/11/23 01:37:44;;;;;;;6.43;1.98;;;10.60;99.90;;;9.75;100.00;99218.59;4221243;28;20024;-73
2022/11/23 01:39:46;;;;;;;5.68;1.70;;;10.60;99.90;;;9.80;100.00;99218.00;4254494;27;20030;-73
2022/11/23 01:41:47;;;;;;;4.78;1.95;;;10.60;99.90;;;9.75;100.00;99215.94;4220080;28;20047;-73
2022/11/23 01:43:50;;;;;;;4.43;1.60;;;10.60;99.90;;;9.75;100.00;99210.69;4253759;27;20065;-74
2022/11/23 01:45:59;;;;;;;5.88;1.73;;;10.60;99.90;;;9.81;100.00;99224.91;4253661;27;20031;-73
2022/11/23 01:48:05;;;;;;;6.90;1.63;;;10.60;99.90;;;9.76;100.00;99216.78;4221458;28;20026;-74
2022/11/23 01:50:06;;;;;;;2.85;1.48;;;10.60;99.90;;;9.77;100.00;99221.84;4253634;27;20027;-73
2022/11/23 01:52:17;;;;;;;5.30;1.70;;;10.60;99.90;;;9.84;100.00;99216.63;4219755;28;20106;-73
2022/11/23 01:54:30;;;;;;;4.72;1.60;;;10.60;99.90;;;9.77;100.00;99213.13;4253618;27;20434;-74
2022/11/23 01:56:37;;;;;;;6.63;1.77;;;10.60;99.90;;;9.77;100.00;99208.66;4252775;27;20023;-73
2022/11/23 01:58:44;;;;;;;3.28;1.58;;;10.60;99.90;;;9.76;100.00;99204.44;4220823;28;20111;-74
2022/11/23 02:00:46;;;;;;;5.18;2.35;;;10.60;99.90;;;9.77;100.00;99208.66;4253408;27;20015;-74
2022/11/23 02:02:56;;;;;;;5.53;2.15;;;10.60;99.90;;;9.79;100.00;99209.31;4221155;28;20491;-73
2022/11/23 02:05:00;;;;;;;3.55;1.58;;;10.60;99.90;;;9.80;100.00;99207.47;4253460;27;20019;-74
2022/11/23 02:07:03;;;;;;;3.67;1.85;;;10.60;99.90;;;9.74;100.00;99211.69;4253404;27;20027;-73
2022/11/23 02:09:05;;;;;;;3.95;1.92;;;10.60;99.90;;;9.77;100.00;99213.13;4236473;28;20047;-73
2022/11/23 02:11:06;;;;;;;3.45;1.60;;;10.60;99.90;;;9.80;100.00;99213.56;4219621;28;20028;-74
2022/11/23 02:13:11;;;;;;;4.40;1.70;;;10.60;99.90;;;9.80;100.00;99210.09;4236312;28;20114;-74
2022/11/23 02:15:12;;;;;;;3.58;1.77;;;10.60;99.90;;;9.81;100.00;99206.47;4253260;27;20110;-74
2022/11/23 02:17:13;;;;;;;3.60;1.65;;;10.60;99.90;;;9.81;100.00;99219.66;4220647;28;20028;-74
2022/11/23 02:19:46;;;;;;;4.55;2.28;;;10.60;99.90;;;9.78;100.00;99212.94;4219707;28;20570;-74
2022/11/23 02:21:50;;;;;;;6.65;2.33;;;10.60;99.90;;;9.84;100.00;99208.75;4248289;27;20046;-74
2022/11/23 02:24:14;;;;;;;3.97;2.17;;;10.60;99.90;;;9.82;100.00;99221.28;4219357;28;20024;-73
2022/11/23 02:26:28;;;;;;;7.38;2.72;;;10.60;99.90;;;9.82;100.00;99211.56;4219195;28;20028;-74
2022/11/23 02:28:45;;;;;;;5.18;2.28;;;10.60;99.90;;;9.81;100.00;99207.31;4202735;28;20040;-73
2022/11/23 02:30:49;;;;;;;5.70;2.50;;;10.60;99.90;;;9.84;100.00;99208.75;4251600;27;20031;-73
2022/11/23 02:32:50;;;;;;;5.55;3.10;;;10.60;99.90;;;9.87;100.00;99203.09;4251958;27;20034;-73
2022/11/23 02:34:51;;;;;;;6.25;2.95;;;10.70;99.90;;;9.83;100.00;99193.94;4219887;28;20028;-74
2022/11/23 02:36:56;;;;;;;5.72;2.25;;;10.70;99.90;;;9.83;100.00;99201.84;4220531;28;20180;-74
2022/11/23 02:39:00;;;;;;;3.15;1.98;;;10.70;99.90;;;9.83;100.00;99202.66;4253020;27;20022;-73
2022/11/23 02:41:01;;;;;;;;;;;10.70;99.90;;;9.78;100.00;99193.69;4220665;28;20032;-74
2022/11/23 02:43:02;;;;;;;4.10;2.08;;;10.70;99.90;;;9.83;100.00;99197.38;4220339;28;19914;-74
2022/11/23 02:45:23;;;;;;;5.10;2.45;;;10.70;99.90;;;9.79;100.00;99195.34;4220393;28;20028;-74
2022/11/23 02:47:24;;;;;;;5.32;2.00;;;10.60;99.90;;;9.79;100.00;99190.88;4220301;28;20020;-73
2022/11/23 02:49:25;;;;;;;5.32;2.08;;;10.70;99.90;;;9.80;100.00;99200.41;4252770;27;20041;-74
2022/11/23 02:51:26;;;;;;;4.75;2.03;;;10.60;99.90;;;9.89;100.00;99198.44;4220458;28;20024;-73
2022/11/23 02:53:26;;;;;;;5.05;2.00;;;10.70;99.90;;;9.83;100.00;99192.13;4252853;27;20026;-74
2022/11/23 02:55:28;;;;;;;3.70;1.90;;;10.70;99.90;;;9.82;100.00;99192.31;4220075;28;20040;-73
2022/11/23 02:57:28;;;;;;;2.33;1.60;;;10.60;99.90;;;9.86;100.00;99181.19;4252553;27;20029;-74
2022/11/23 02:59:31;;;;;;;2.45;1.50;;;10.60;99.90;;;9.85;100.00;99171.69;4252929;27;20418;-73
2022/11/23 03:01:32;;;;;;;3.25;1.50;;;10.70;99.90;;;9.86;100.00;99168.03;4220044;28;20450;-74
2022/11/23 03:03:33;;;;;;;4.05;1.70;;;10.60;99.90;;;9.82;100.00;99161.53;4235501;28;20095;-73
2022/11/23 03:05:34;;;;;;;4.10;1.25;;;10.60;99.90;;;9.82;100.00;99166.00;4252051;27;20030;-74
2022/11/23 03:07:35;;;;;;;1.95;1.20;;;10.60;99.90;;;9.82;100.00;99152.81;4218773;28;20113;-74
2022/11/23 03:09:36;;;;;;;4.88;1.50;;;10.70;99.90;;;9.83;100.00;99155.25;4252595;27;20062;-74
2022/11/23 03:11:36;;;;;;;4.95;1.50;;;10.70;99.90;;;9.86;100.00;99164.59;4218449;28;20035;-74
2022/11/23 03:13:37;;;;;;;6.15;1.20;;;10.60;99.90;;;9.82;100.00;99168.63;4235189;28;20036;-74
2022/11/23 03:15:38;;;;;;;2.00;1.20;;;10.60;99.90;;;9.82;100.00;99173.88;4220013;28;20568;-74
2022/11/23 03:17:39;;;;;;;3.05;1.10;;;10.60;99.90;;;9.83;100.00;99178.94;4219071;28;20058;-73
2022/11/23 03:19:40;;;;;;;4.20;1.50;;;10.60;99.90;;;9.81;100.00;99161.72;4219502;28;20027;-74
2022/11/23 03:21:41;;;;;;;2.05;1.25;;;10.60;99.90;;;9.80;100.00;99160.06;4252208;27;20092;-74
2022/11/23 03:23:42;;;;;;;3.97;1.50;;;10.70;99.90;;;9.83;100.00;99160.50;4218518;28;20086;-73
2022/11/23 03:25:43;;;;;;;2.10;1.60;;;10.60;99.90;;;9.85;100.00;99161.16;4252313;27;20069;-73
2022/11/23 03:27:44;;;;;;;3.00;1.58;;;10.60;99.90;;;9.84;100.00;99162.16;4219364;28;20396;-73
2022/11/23 03:29:45;;;;;;;2.80;1.27;;;10.70;99.90;;;9.83;100.00;99149.16;4219534;28;20020;-73
2022/11/23 03:31:46;;;;;;;2.08;1.48;;;10.70;99.90;;;9.81;100.00;99146.72;4218254;28;20031;-73
2022/11/23 03:33:46;;;;;;;2.65;1.40;;;10.70;99.90;;;9.85;100.00;99149.81;4219656;28;20028;-73
2022/11/23 03:35:47;;;;;;;3.40;1.25;;;10.60;99.90;;;9.85;100.00;99140.09;4219345;28;20407;-74
2022/11/23 03:37:48;;;;;;;1.88;1.20;;;10.70;99.90;;;9.90;100.00;99142.97;4251952;27;20094;-73
2022/11/23 03:39:49;;;;;;;1.92;1.40;;;10.70;99.90;;;9.86;100.00;99128.53;4218289;28;20042;-73
2022/11/23 03:41:50;;;;;;;2.85;1.13;;;10.70;99.90;;;9.84;100.00;99124.47;4252101;27;20019;-73
2022/11/23 03:43:52;;;;;;;2.97;1.45;;;10.70;99.90;;;9.85;100.00;99116.41;4251751;27;20030;-73
2022/11/23 03:45:52;;;;;;;3.50;2.03;;;10.70;99.90;;;9.87;100.00;99124.91;4218871;28;20107;-73
2022/11/23 03:47:53;;;;;;;3.67;1.70;;;10.70;99.90;;;9.92;100.00;99130.41;4252027;27;20110;-73
2022/11/23 03:49:54;;;;;;;4.20;1.90;;;10.70;99.90;;;9.89;100.00;99136.06;4219316;28;20021;-73
2022/11/23 03:51:55;;;;;;;2.50;1.60;;;10.70;99.90;;;9.93;100.00;99139.94;4219407;28;20028;-73
2022/11/23 03:53:56;;;;;;;1.95;1.65;;;10.70;99.90;;;9.87;100.00;99134.63;4219016;28;20074;-73
2022/11/23 03:55:57;;;;;;;2.80;1.88;;;10.70;99.90;;;9.87;100.00;99143.34;4219460;28;20031;-73
2022/11/23 03:57:58;;;;;;;2.35;1.60;;;10.70;99.90;;;9.91;100.00;99138.50;4218972;28;20024;-73
2022/11/23 03:59:59;;;;;;;3.30;1.70;;;10.70;99.90;;;9.91;100.00;99144.59;4251876;27;20470;-73
2022/11/23 04:02:00;;;;;;;4.05;1.70;;;10.70;99.90;;;9.93;100.00;99139.94;4218935;28;20505;-73
2022/11/23 04:04:01;;;;;;;2.05;1.75;;;10.70;99.90;;;9.93;100.00;99124.13;4217783;28;20024;-73
2022/11/23 04:06:02;;;;;;;3.40;2.10;;;10.80;99.90;;;10.09;100.00;99132.78;4219014;28;20396;-74
2022/11/23 04:08:03;;;;;;;2.80;2.50;;;10.80;99.90;;;10.01;100.00;99131.91;4251634;27;20031;-73
2022/11/23 04:10:05;;;;;;;4.15;2.10;;;10.80;99.90;;;10.10;100.00;99127.28;4218763;28;20039;-74
2022/11/23 04:12:07;;;;;;;2.60;2.30;;;10.80;99.90;;;10.05;100.00;99142.06;4217472;28;20016;-74
2022/11/23 04:14:08;;;;;;;3.20;2.45;;;10.80;99.90;;;10.03;100.00;99139.63;4217662;28;20020;-73
2022/11/23 04:16:09;;;;;;;4.45;2.83;;;10.80;99.90;;;10.08;100.00;99141.66;4218915;28;20043;-74
2022/11/23 04:18:10;;;;;;;5.82;3.80;;;10.90;99.90;;;10.08;100.00;99139.03;4217559;28;20025;-73
2022/11/23 04:20:12;;;;;;;3.28;2.97;;;10.90;99.90;;;10.11;100.00;99151.81;4218846;28;20039;-73
2022/11/23 04:22:12;;;;;;;5.15;3.78;;;10.90;99.90;;;10.14;100.00;99168.09;4217025;28;20046;-74
2022/11/23 04:24:13;;;;;;;4.38;3.47;;;10.90;99.90;;;10.16;100.00;99170.53;4217468;28;20055;-73
2022/11/23 04:26:14;;;;;;;6.68;3.30;;;11.00;99.90;;;10.16;100.00;99160.81;4218684;28;20107;-73
2022/11/23 04:28:15;;;;;;;6.43;4.00;;;11.00;99.90;;;10.25;100.00;99174.66;4217182;28;20028;-73
2022/11/23 04:30:16;;;;;;;5.68;3.03;;;11.00;99.90;;;10.27;100.00;99172.66;4218703;28;20028;-73
2022/11/23 04:32:17;;;;;;;8.57;3.55;;;11.00;99.90;;;10.29;100.00;99165.38;4218687;28;20028;-73
2022/11/23 04:34:18;;;;;;;9.75;4.05;;;11.10;99.90;;;10.37;100.00;99149.38;4218544;28;20039;-73
2022/11/23 04:36:19;;;;;;;5.65;3.40;;;11.10;99.90;;;10.40;100.00;99151.63;4218376;28;20028;-73
2022/11/23 04:38:20;;;;;;;13.15;3.65;;;11.10;99.90;;;10.46;100.00;99142.97;4218682;28;20024;-73
2022/11/23 04:40:20;;;;;;;12.07;3.65;;;11.20;99.90;;;10.46;100.00;99135.06;4218727;28;20024;-74
2022/11/23 04:42:21;;;;;;;16.98;4.10;;;11.20;99.90;;;10.49;100.00;99134.66;4217177;28;20028;-73
2022/11/23 04:44:22;;;;;;;13.52;4.05;;;11.30;99.90;;;10.51;100.00;99122.13;4218366;28;20545;-73
2022/11/23 04:46:23;;;;;;;19.02;4.10;;;11.30;99.90;;;10.55;100.00;99120.69;4217498;28;20036;-73
2022/11/23 04:48:24;;;;;;;21.77;4.70;;;11.30;99.90;;;10.63;100.00;99110.00;4218540;28;20028;-73
2022/11/23 04:50:25;;;;;;;12.68;4.22;;;11.40;99.90;;;10.67;100.00;99099.88;4218438;28;20062;-73
2022/11/23 04:52:26;;;;;;;20.30;4.05;;;11.40;99.90;;;10.65;100.00;99084.25;4218344;28;20023;-73
2022/11/23 04:54:26;;;;;;;15.77;3.83;;;11.40;99.90;;;10.73;100.00;99077.97;4218506;28;20028;-73
2022/11/23 04:56:27;;;;;;;11.02;3.75;;;11.50;99.90;;;10.69;100.00;99068.84;4218912;28;20502;-73
2022/11/23 04:58:28;;;;;;;14.30;3.25;;;11.50;99.90;;;10.70;100.00;99052.81;4203722;28;20020;-73
2022/11/23 05:00:30;;;;;;;16.23;4.15;;;11.50;99.90;;;10.80;100.00;99057.72;4221564;28;20020;-73
2022/11/23 05:02:30;;;;;;;17.02;5.95;;;11.50;99.90;;;10.74;100.00;99054.06;4221912;28;20048;-73
2022/11/23 05:04:33;;;;;;;15.18;4.60;;;11.50;99.90;;;10.75;100.00;99055.66;4221845;28;20043;-73
2022/11/23 05:06:34;;;;;;;17.27;4.13;;;11.50;99.90;;;10.72;100.00;99052.63;4221968;28;20031;-73
2022/11/23 05:08:36;;;;;;;16.17;4.50;;;11.50;99.90;;;10.73;100.00;99057.69;4203294;28;20024;-73
2022/11/23 05:10:37;;;;;;;16.23;5.07;;;11.50;99.90;;;10.78;100.00;99070.31;4220583;28;20428;-73
2022/11/23 05:12:37;;;;;;;19.10;4.78;;;11.60;99.90;;;10.77;100.00;99073.94;4221542;28;20049;-73
2022/11/23 05:14:38;;;;;;;17.48;6.63;;;11.60;99.90;;;10.87;100.00;99077.81;4221686;28;20436;-73
2022/11/23 05:16:40;;;;;;;23.05;5.03;;;11.60;99.90;;;10.91;100.00;99079.06;4220292;28;20029;-73
2022/11/23 05:18:41;;;;;;;16.73;5.20;;;11.60;99.90;;;10.91;100.00;99091.44;4221587;28;20020;-73
2022/11/23 05:20:42;;;;;;;22.25;4.88;;;11.70;99.90;;;10.92;100.00;99093.91;4221500;28;20036;-73
2022/11/23 05:22:43;;;;;;;19.45;5.93;;;11.70;99.90;;;10.97;100.00;99095.91;4221655;28;20031;-73
2022/11/23 05:24:43;;;;;;;28.17;5.47;;;11.70;99.90;;;10.99;100.00;99089.44;4221426;28;20031;-73
2022/11/23 05:26:44;;;;;;;24.25;4.72;;;11.80;99.90;;;10.99;100.00;99089.44;4221902;28;20043;-73
2022/11/23 05:28:45;;;;;;;21.30;5.30;;;11.80;99.90;;;11.00;100.00;99085.78;4221280;28;20066;-73
2022/11/23 05:30:47;;;;;;;34.95;6.10;;;11.80;99.90;;;11.05;100.00;99101.81;4221408;28;20487;-73
2022/11/23 05:32:47;;;;;;;34.20;4.70;;;11.90;99.90;;;11.11;100.00;99126.59;4220054;28;20111;-73
2022/11/23 05:34:48;;;;;;;25.98;4.30;;;11.90;99.90;;;11.14;100.00;99118.28;4221375;28;20395;-73
2022/11/23 05:36:49;;;;;;;37.97;7.07;;;11.90;99.90;;;11.16;100.00;99102.28;4220330;28;20082;-73
2022/11/23 05:38:51;;;;;;;24.90;6.32;;;11.90;99.90;;;11.22;100.00;99101.47;4221691;28;20032;-73
2022/11/23 05:40:52;;;;;;;45.50;7.28;;;12.00;99.90;;;11.26;100.00;99108.78;4221303;28;20099;-73
2022/11/23 05:42:59;;;;;;;46.75;7.68;;;12.00;99.90;;;11.35;100.00;99114.72;4219692;28;20533;-73
2022/11/23 05:45:00;;;;;;;48.03;8.02;;;12.10;99.90;;;11.40;100.00;99121.00;4220467;28;20031;-73
2022/11/23 05:47:01;;;;;;;39.20;7.47;;;12.20;99.90;;;11.49;100.00;99121.63;4220171;28;20111;-73
2022/11/23 05:49:02;;;;;;;48.80;7.93;;;12.20;99.90;;;11.50;100.00;99107.41;4221257;28;20476;-73
2022/11/23 05:51:03;;;;;;;52.40;9.27;;;12.30;99.90;;;11.59;100.00;99112.28;4221344;28;20027;-73
2022/11/23 05:53:04;;;;;;;54.85;10.05;;;12.30;99.90;;;11.60;100.00;99123.66;4221213;28;20108;-73
2022/11/23 05:55:05;;;;;;;58.58;9.73;;;12.30;99.90;;;11.64;100.00;99136.28;4221108;28;20036;-73
2022/11/23 05:57:05;;;;;;;33.65;5.82;;;12.40;99.90;;;11.59;100.00;99119.38;4220716;28;20045;-73
2022/11/23 05:59:06;;;;;;;24.08;4.68;;;12.40;99.90;;;11.36;100.00;99106.56;4220820;28;20483;-73
2022/11/23 06:01:07;;;;;;;24.27;4.68;;;12.20;99.90;;;11.27;100.00;99101.69;4219950;28;20017;-73
2022/11/23 06:03:08;;;;;;;18.40;3.85;;;12.10;99.90;;;11.23;100.00;99088.06;4221086;28;20024;-73
2022/11/23 06:05:10;;;;;;;18.33;3.67;;;12.00;99.90;;;11.15;100.00;99077.69;4220995;28;20027;-73
2022/11/23 06:07:10;;;;;;;21.05;4.45;;;12.00;99.90;;;11.11;100.00;99050.91;4220486;28;20043;-73
2022/11/23 06:09:11;;;;;;;18.02;4.25;;;11.90;99.90;;;11.03;100.00;99034.44;4220899;28;20020;-73
2022/11/23 06:11:12;;;;;;;22.65;4.22;;;11.90;99.90;;;11.04;100.00;99044.81;4220998;28;20059;-73
2022/11/23 06:13:13;;;;;;;19.52;3.08;;;11.80;99.90;;;10.99;100.00;99044.56;4253341;27;20585;-73
2022/11/23 06:15:14;;;;;;;23.50;3.65;;;11.80;99.90;;;11.02;100.00;99051.31;4220651;28;20089;-73
2022/11/23 06:17:15;;;;;;;26.42;4.68;;;11.80;99.90;;;11.05;100.00;99049.06;4220779;28;20426;-73
2022/11/23 06:19:16;;;;;;;25.88;4.25;;;11.80;99.90;;;11.01;100.00;99054.94;4252467;27;20057;-73
2022/11/23 06:21:17;;;;;;;29.00;4.50;;;11.80;99.90;;;11.01;100.00;99060.22;4236169;28;20431;-74
2022/11/23 06:23:18;;;;;;;22.33;3.30;;;11.80;99.90;;;10.99;100.00;99070.97;4220503;28;20073;-74
2022/11/23 06:25:19;;;;;;;17.17;3.20;;;11.80;99.90;;;10.97;100.00;99086.19;4220816;28;20383;-73
2022/11/23 06:27:20;;;;;;;8.65;2.97;;;11.80;99.90;;;11.04;100.00;99102.03;4253136;27;20083;-73
2022/11/23 06:29:21;;;;;;;13.15;2.63;;;11.80;99.90;;;11.06;100.00;99092.91;4202461;28;20067;-73
2022/11/23 06:31:22;;;;;;;11.57;2.45;;;11.80;99.90;;;11.13;100.00;99097.38;4218640;28;20032;-73
2022/11/23 06:33:23;;;;;;;10.23;2.10;;;11.80;99.90;;;11.32;100.00;99097.41;4220493;28;20067;-74
2022/11/23 06:35:23;;;;;;;8.20;1.23;;;11.90;99.90;;;11.30;100.00;99111.84;4220377;28;20035;-73
2022/11/23 06:37:24;;;;;;;6.35;1.63;;;12.00;99.90;;;11.26;100.00;99110.63;4220307;28;20081;-73
2022/11/23 06:39:25;;;;;;;8.90;1.80;;;12.00;99.90;;;11.30;100.00;99106.56;4218999;28;20028;-73
2022/11/23 06:41:27;;;;;;;9.82;1.80;;;12.00;99.90;;;11.26;100.00;99115.91;4220393;28;20047;-73
2022/11/23 06:43:29;;;;;;;12.00;1.60;;;12.00;99.90;;;11.23;100.00;99105.75;4220137;28;20024;-73
2022/11/23 06:45:30;;;;;;;11.15;1.48;;;12.00;99.90;;;11.11;100.00;99106.31;4219100;28;20028;-74
2022/11/23 06:47:30;;;;;;;12.85;2.47;;;11.90;99.90;;;11.09;100.00;99116.25;4220116;28;20039;-73
2022/11/23 06:49:31;;;;;;;13.43;2.60;;;11.80;99.90;;;11.07;100.00;99133.31;4219043;28;20399;-73
2022/11/23 06:51:32;;;;;;;10.50;1.60;;;11.90;99.90;;;11.06;100.00;99142.22;4220306;28;20027;-73
2022/11/23 06:53:33;;;;;;;12.35;1.92;;;11.80;99.90;;;11.08;100.00;99142.84;4219989;28;20065;-73
2022/11/23 06:55:34;;;;;;;13.05;1.83;;;11.80;99.90;;;11.10;100.00;99144.28;4219957;28;20024;-73
2022/11/23 06:57:34;;;;;;;11.10;2.45;;;11.80;99.90;;;10.93;100.00;99142.19;4219943;28;20024;-73
2022/11/23 06:59:35;;;;;;;12.95;2.10;;;11.70;99.90;;;10.88;100.00;99153.31;4218821;28;20020;-73
2022/11/23 07:01:36;;;;;;;9.02;2.70;;;11.70;99.90;;;10.85;100.00;99155.53;4218824;28;20051;-73
2022/11/23 07:03:37;;;;;;;9.65;1.60;;;11.60;99.90;;;10.85;100.00;99166.09;4219914;28;20035;-74
2022/11/23 07:05:38;;;;;;;6.25;1.73;;;11.60;99.90;;;10.85;100.00;99171.34;4219134;28;20020;-74
2022/11/23 07:07:39;;;;;;;10.48;2.67;;;11.60;99.90;;;10.76;100.00;99178.63;4219958;28;20042;-73
2022/11/23 07:09:40;;;;;;;13.60;3.35;;;11.60;99.90;;;10.76;100.00;99189.19;4219822;28;20071;-73
2022/11/23 07:11:41;;;;;;;14.65;2.80;;;11.50;99.90;;;10.65;100.00;99189.72;4219809;28;20027;-73
2022/11/23 07:13:42;;;;;;;12.70;2.63;;;11.40;99.90;;;10.56;100.00;99182.97;4219675;28;20119;-73
2022/11/23 07:15:43;;;;;;;12.40;2.85;;;11.40;99.90;;;10.50;100.00;99199.56;4219811;28;20132;-74
2022/11/23 07:17:44;;;;;;;11.43;2.13;;;11.30;99.90;;;10.53;100.00;99212.38;4218723;28;20036;-73
2022/11/23 07:19:44;;;;;;;10.23;1.98;;;11.20;99.90;;;10.52;100.00;99213.38;4217495;28;20020;-74
2022/11/23 07:21:45;;;;;;;22.25;3.60;;;11.20;99.90;;;10.37;100.00;99212.66;4219468;28;20044;-73
2022/11/23 07:23:46;;;;;;;9.35;2.55;;;11.20;99.90;;;10.40;100.00;99215.72;4252424;27;20015;-73
2022/11/23 07:25:47;;;;;;;15.18;4.00;;;11.20;99.90;;;10.38;100.00;99219.56;4218523;28;20441;-74
2022/11/23 07:27:58;;;;;;;12.32;3.67;;;11.10;99.90;;;10.39;100.00;99214.09;4252072;27;20019;-73
2022/11/23 07:29:58;;;;;;;12.50;3.53;;;11.20;99.90;;;10.41;100.00;99219.19;4219607;28;20556;-74
2022/11/23 07:31:59;;;;;;;17.58;2.75;;;11.20;99.90;;;10.41;100.00;99227.09;4219440;28;20024;-73
2022/11/23 07:34:00;;;;;;;10.57;2.30;;;11.20;99.90;;;10.41;100.00;99220.00;4219485;28;20054;-74
2022/11/23 07:36:02;;;;;;;12.07;2.33;;;11.20;99.90;;;10.38;100.00;99227.47;4219266;28;20024;-73
2022/11/23 07:38:06;;;;;;;15.52;3.40;;;11.10;99.90;;;10.35;100.00;99243.66;4252774;27;20374;-73
2022/11/23 07:40:08;;;;;;;15.93;2.55;;;11.10;99.90;;;10.41;100.00;99246.34;4219415;28;20073;-73
2022/11/23 07:42:09;;;;;;;17.80;3.95;;;11.10;99.90;;;10.38;100.00;99243.28;4219260;28;20020;-73
2022/11/23 07:44:10;;;;;;;17.85;2.50;;;11.10;99.90;;;10.29;100.00;99242.63;4251986;27;20015;-74
2022/11/23 07:46:10;;;;;;;17.92;3.05;;;11.10;99.90;;;10.26;100.00;99232.44;4219764;28;20030;-73
2022/11/23 07:48:11;;;;;;;11.20;2.30;;;11.00;99.90;;;10.22;100.00;99243.53;4219572;28;20020;-73
2022/11/23 07:50:13;;;;;;;11.38;2.60;;;11.00;99.90;;;10.20;100.00;99261.38;4251989;27;20030;-74
2022/11/23 07:52:14;;;;;;;18.67;2.83;;;11.00;99.90;;;10.22;100.00;99265.44;4251822;27;20083;-73
2022/11/23 07:54:16;;;;;;;15.05;3.25;;;11.00;99.90;;;10.30;100.00;99248.72;4217959;28;20024;-73
2022/11/23 07:56:17;;;;;;;22.00;3.92;;;11.00;99.90;;;10.46;100.00;99259.78;4219281;28;20468;-74
2022/11/23 07:58:18;;;;;;;16.92;2.75;;;11.10;99.90;;;10.40;100.00;99262.34;4218909;28;20035;-73
2022/11/23 08:00:23;;;;;;;19.27;3.17;;;11.10;99.90;;;10.38;100.00;99259.09;4251724;27;20016;-74
2022/11/23 08:02:24;;;;;;;10.90;2.63;;;11.10;99.90;;;10.37;100.00;99268.00;4250959;27;20027;-74
2022/11/23 08:04:26;;;;;;;15.40;3.63;;;11.10;99.90;;;10.30;100.00;99267.16;4219252;28;20026;-74
2022/11/23 08:06:27;;;;;;;20.88;3.33;;;11.10;99.90;;;10.19;100.00;99271.09;4218859;28;20034;-73
2022/11/23 08:08:28;;;;;;;25.33;3.40;;;11.00;99.90;;;10.17;100.00;99290.75;4251216;27;20051;-73
2022/11/23 08:10:31;;;;;;;17.60;4.00;;;10.90;99.90;;;10.10;100.00;99303.81;4214513;28;20032;-73
2022/11/23 08:12:31;;;;;;;14.45;3.90;;;10.90;99.90;;;10.08;100.00;99300.56;4217213;28;20032;-73
2022/11/23 08:14:32;;;;;;;18.00;3.45;;;10.80;99.90;;;10.11;100.00;99318.63;4217080;28;20024;-74
2022/11/23 08:16:33;;;;;;;14.70;2.38;;;10.80;99.90;;;10.06;100.00;99312.28;4218307;28;20024;-74
2022/11/23 08:18:34;;;;;;;7.95;1.83;;;10.80;99.90;;;10.01;100.00;99316.28;4214192;28;20074;-74
2022/11/23 08:20:35;;;;;;;13.05;2.10;;;10.80;99.90;;;10.08;100.00;99323.44;4217348;28;20031;-74
2022/11/23 08:22:36;;;;;;;15.10;2.65;;;10.70;99.90;;;9.98;100.00;99331.66;4217807;28;20051;-74
2022/11/23 08:24:36;;;;;;;10.02;2.60;;;10.70;99.90;;;10.14;100.00;99333.28;4217734;28;20021;-75
2022/11/23 08:26:37;;;;;;;10.40;1.90;;;10.80;99.90;;;10.14;100.00;99343.81;4217821;28;20028;-74